ZMUB Airport Information

Runway Information
Runway 14 Length 10170 ft width 197 ft
Elevation 4147 ft Threshold 0 ft Heading 136
Runway 32 Length 10170 ft Width 197 ft
Elevation 4363 ft Threshold 0 ft Heading 316
Runway 15 Length 6560 ft width 131 ft
Elevation 4123 ft Threshold 0 ft Heading 145
Runway 33 Length 6560 ft Width 131 ft
Elevation 4267 ft Threshold 0 ft Heading 325
Airport Frequencies
Type ACC Name ULAANBAATA Frequency 126 MHZ
Type APP Name ULAANBAATA Frequency 120 MHZ
Type ATIS Name ATIS Frequency 126 MHZ
Airport Navaids
Type NDB Name Ulaanbaatar Frequency 315 KHZ
Type VOR-DME Name Ulaanbaatar Frequency 116000 KHZ
Airport Weather Information & NOTAM
ADDS - METARS form results

(2252 UTC 16 February 2020)
Data provider http://aviationweather.gov/metar/data/
 
METAR text: ZMUB 162230Z VRB01MPS 8000NW NSC M24/M27 Q1029 NOSIG RMK QFE663.4 74 NT
Conditions at: ZMUB (ULAN-BATOR , MG) observed 2230 UTC 16 February 2020
Temperature: -24.0°C (-11°F)
Dewpoint: -27.0°C (-17°F) [RH = 76%]
Pressure (altimeter): 30.38 inches Hg (1029.0 mb)
Winds: variable direction winds at 2 MPH (2 knots; 1.0 m/s)
Visibility: 5 miles ( 8 km)
Ceiling: at least 12,000 feet AGL
Clouds: sky clear below 12,000 feet AGL
Weather: no significant weather observed at this time

METAR text: ZMUB 162200Z VRB01MPS 8000NW NSC M24/M27 Q1029 NOSIG RMK QFE663.4 74 NT
Conditions at: ZMUB (ULAN-BATOR , MG) observed 2200 UTC 16 February 2020
Temperature: -24.0°C (-11°F)
Dewpoint: -27.0°C (-17°F) [RH = 76%]
Pressure (altimeter): 30.38 inches Hg (1029.0 mb)
Winds: variable direction winds at 2 MPH (2 knots; 1.0 m/s)
Visibility: 5 miles ( 8 km)
Ceiling: at least 12,000 feet AGL
Clouds: sky clear below 12,000 feet AGL
Weather: no significant weather observed at this time

Forecast for: ZMUB (ULAN-BATOR , MG)
Text: TAF ZMUB 162240Z 1700/1806 VRB02MPS 6000 SCT100 TXM05/1707Z TNM23/1723Z
Forecast period: 0000 UTC 17 February 2020 to 0600 UTC 18 February 2020
Forecast type: FROM: standard forecast or significant change
Winds: variable direction winds at 5 MPH (4 knots; 2.1 m/s)
Visibility: 4 miles (6 km)
Ceiling: at least 12,000 feet AGL
Clouds: scattered clouds at 10000 feet AGL
Weather: no significant weather forecast for this period